createdAt,value
2022-08-29T00:01:01.632Z,2.00
2022-08-29T00:06:17.613Z,11.10
2022-08-29T00:11:14.451Z,28.90
2022-08-29T00:15:58.275Z,38.60
2022-08-29T00:20:49.294Z,43.20
2022-08-29T00:25:34.018Z,50.50
2022-08-29T00:30:28.925Z,49.00
2022-08-29T00:35:29.982Z,76.60
2022-08-29T00:40:24.898Z,99.90
2022-08-29T00:45:11.823Z,99.90
2022-08-29T00:49:59.360Z,99.90
2022-08-29T00:54:49.338Z,99.90
2022-08-29T01:00:02.711Z,99.90
2022-08-29T01:04:56.046Z,99.90
2022-08-29T01:09:44.910Z,99.90
2022-08-29T01:14:30.400Z,99.90
2022-08-29T01:19:31.467Z,99.90
2022-08-29T01:24:38.791Z,99.90
2022-08-29T01:29:25.525Z,99.90
2022-08-29T01:34:13.753Z,1.00
2022-08-29T01:39:22.086Z,1.00
2022-08-29T01:44:26.699Z,1.00
2022-08-29T01:49:12.450Z,1.00
2022-08-29T01:53:57.581Z,99.90
2022-08-29T01:58:46.468Z,1.00
2022-08-29T02:03:36.196Z,1.00
2022-08-29T02:08:25.986Z,1.00
2022-08-29T02:13:09.925Z,1.00
2022-08-29T02:17:56.783Z,1.00
2022-08-29T02:22:44.797Z,99.90
2022-08-29T02:27:32.072Z,99.90
2022-08-29T02:32:24.862Z,99.90
2022-08-29T02:37:14.120Z,99.90
2022-08-29T02:42:13.159Z,99.90
2022-08-29T02:47:01.579Z,1.00
2022-08-29T02:51:49.027Z,1.00
2022-08-29T02:56:39.054Z,99.90
2022-08-29T03:01:28.369Z,99.90
2022-08-29T03:06:14.045Z,99.90
2022-08-29T03:11:00.277Z,89.80
2022-08-29T03:15:51.837Z,99.90
2022-08-29T03:20:42.086Z,99.90
2022-08-29T03:25:27.397Z,1.00
2022-08-29T03:30:19.766Z,99.90
2022-08-29T03:35:14.642Z,1.00
2022-08-29T03:40:11.167Z,99.90
2022-08-29T03:45:06.654Z,1.00
2022-08-29T03:49:56.409Z,1.00
2022-08-29T03:54:44.080Z,1.00
2022-08-29T03:59:34.421Z,1.00
2022-08-29T04:04:39.493Z,99.90
2022-08-29T04:09:24.415Z,1.00
2022-08-29T04:14:16.421Z,1.00
2022-08-29T04:19:02.009Z,1.00
2022-08-29T04:23:51.014Z,1.00
2022-08-29T04:28:37.626Z,1.00
2022-08-29T04:33:26.152Z,1.00
2022-08-29T04:38:25.657Z,1.00
2022-08-29T04:43:16.512Z,99.90
2022-08-29T04:48:20.686Z,99.90
2022-08-29T04:53:09.092Z,99.90
2022-08-29T04:57:57.592Z,90.20
2022-08-29T05:02:50.921Z,50.70
2022-08-29T05:07:52.372Z,10.40
2022-08-29T05:12:41.095Z,1.00
2022-08-29T05:17:30.197Z,1.00
2022-08-29T05:22:15.157Z,1.00
2022-08-29T05:27:05.160Z,1.00
2022-08-29T05:31:50.586Z,1.00
2022-08-29T05:36:39.079Z,1.00
2022-08-29T05:41:25.717Z,1.00
2022-08-29T05:46:15.226Z,1.00
2022-08-29T05:51:20.815Z,1.00
2022-08-29T05:56:40.371Z,1.00
2022-08-29T06:01:28.602Z,1.00
2022-08-29T06:06:30.189Z,1.00
2022-08-29T06:11:33.884Z,1.00
2022-08-29T06:16:56.979Z,1.00
2022-08-29T06:21:46.787Z,1.00
2022-08-29T06:26:48.745Z,1.00
2022-08-29T06:32:02.807Z,1.00
2022-08-29T06:37:14.331Z,1.00
2022-08-29T06:42:12.895Z,1.00
2022-08-29T06:47:19.162Z,1.00
2022-08-29T06:52:17.976Z,1.00
2022-08-29T06:57:25.577Z,1.00
2022-08-29T07:02:14.156Z,1.00
2022-08-29T07:07:01.325Z,1.00
2022-08-29T07:11:52.494Z,1.00
2022-08-29T07:16:42.489Z,1.00
2022-08-29T07:21:47.119Z,1.00
2022-08-29T07:27:21.265Z,1.00
2022-08-29T07:32:22.795Z,1.00
2022-08-29T07:37:11.873Z,1.00
2022-08-29T07:42:14.021Z,1.00
2022-08-29T07:47:03.695Z,1.00
2022-08-29T07:51:54.196Z,1.00
2022-08-29T07:56:50.576Z,1.00
2022-08-29T08:02:00.050Z,1.00
2022-08-29T08:07:04.144Z,1.00
2022-08-29T08:12:08.637Z,1.00
2022-08-29T08:22:30.947Z,1.00
2022-08-29T08:32:54.794Z,1.00
2022-08-29T08:37:46.094Z,1.00
2022-08-29T08:43:03.515Z,1.00
2022-08-29T08:49:27.535Z,1.00
2022-08-29T09:00:56.741Z,1.00
2022-08-29T09:07:22.676Z,1.00
2022-08-29T09:12:36.466Z,1.00
2022-08-29T09:17:36.519Z,1.00
2022-08-29T09:22:37.067Z,1.00
2022-08-29T13:09:14.810Z,1.00
2022-08-29T13:36:29.410Z,1.00
2022-08-29T13:42:19.466Z,1.00
2022-08-29T14:06:45.431Z,1.00
2022-08-29T14:20:00.438Z,1.00
2022-08-29T14:30:19.228Z,1.00
2022-08-29T14:47:34.300Z,1.00
2022-08-29T14:54:27.958Z,1.00
2022-08-29T15:00:43.281Z,1.00
2022-08-29T15:25:51.772Z,1.00
2022-08-29T15:38:26.345Z,1.00
2022-08-29T15:44:05.241Z,1.00
2022-08-29T15:55:09.436Z,1.00
2022-08-29T16:00:16.314Z,1.00
2022-08-29T16:06:10.974Z,1.00
2022-08-29T16:11:24.635Z,1.00
2022-08-29T16:17:00.558Z,1.00
2022-08-29T16:22:40.081Z,1.00
2022-08-29T16:28:22.809Z,1.00
2022-08-29T16:34:09.027Z,1.00
2022-08-29T16:45:25.795Z,1.00
2022-08-29T16:50:11.432Z,1.00
2022-08-29T17:00:16.653Z,1.00
2022-08-29T17:11:07.213Z,1.00
2022-08-29T17:15:52.527Z,1.00
2022-08-29T17:21:07.751Z,1.00
2022-08-29T17:26:22.855Z,1.00
2022-08-29T17:31:13.764Z,1.00
2022-08-29T17:37:29.515Z,1.00
2022-08-29T17:42:45.628Z,1.00
2022-08-29T17:55:48.167Z,1.00
2022-08-29T18:00:07.476Z,1.00
2022-08-29T18:12:09.392Z,1.00
2022-08-29T18:17:59.285Z,1.00
2022-08-29T18:23:24.847Z,1.00
2022-08-29T18:29:17.697Z,1.00
2022-08-29T18:34:08.237Z,1.00
2022-08-29T18:38:54.923Z,1.00
2022-08-29T18:44:18.648Z,1.00
2022-08-29T18:49:57.780Z,1.00
